Quincy, IL

7:50 AM CDT on May 30, 2015 (GMT -0500)
Quincy Regional-Baldwin | | Change Station
CLOSE
Current Station
Airport
Location: Quincy,
Elevation: 768 ft
Nearby Weather Stations

Elev 768 ft 39.94 °N, 91.19 °W | Updated 56 minutes ago

Rain
Rain
66 °F
Feels Like 66 °F
N
0
Wind Variable Wind from North

Today
High -- | Low -- °F
--% Chance of Precip.
Yesterday
High -- | Low -- °F
Precip. -- in
5:39 AM 8:26 PM
Waxing Gibbous, 90% visible
Pressure 29.95 in
Visibility 7.0 miles
Clouds Scattered Clouds 4900 ft
Overcast 6500 ft
Dew Point 64 °F
Humidity 93%
Rainfall 0.23 in
Snow Depth Not available.
UV 0 out of 12
Pollen 3.10 out of 12
Air Quality Not available.
Flu Activity Sporadic
METAR KUIN 301154Z AUTO 00000KT 7SM -RA SCT049 OVC065 19/18 A2997 RMK AO2 RAE18B54 SLP141 P0000 60014 70027 T01890178 10194 20183 51004

More Conditions Fewer Conditions

Pressure 29.95 in
Visibility 7.0 miles
Clouds Scattered Clouds 4900 ft
Overcast 6500 ft
Dew Point 64 °F
Humidity 93%
Rainfall 0.23 in
Snow Depth Not available.
UV 0 out of 12
Pollen 3.10 out of 12
Air Quality Not available.
Flu Activity Sporadic
METAR KUIN 301154Z AUTO 00000KT 7SM -RA SCT049 OVC065 19/18 A2997 RMK AO2 RAE18B54 SLP141 P0000 60014 70027 T01890178 10194 20183 51004

More Conditions Fewer Conditions

10-Day Weather Forecast

Almanac

Astronomy

May. 30, 2015 Rise Set
Actual Time
Civil Twilight
Nautical Twilight
Astronomical Twilight
Moon
Length of Visible Light
Length of Day
Tomorrow will be .
, % of the Moon is Illuminated

Today's Extremes

State Highs State Lows

Community

WunderPhotos

Upload Photos

1,825,498 photos uploaded!

WunderBlogs® & News

Nearby

Air Quality

  Air Quality AQ Index Pollutant
Not available.

Snow Depth

Station Depth Elevation

Earthquake Activity

City Distance Mag. Time & Date
Minimum magnitude displayed is 2.5.

Coastal Water Temperatures

Place Temperature

Stations

Nearby Weather Stations

Station Location Temp. Windchill Dew Point Humidity Wind Precip. Elev Updated Type